createdAt,value
2023-03-06T00:01:01.886Z,3.02
2023-03-06T00:04:03.663Z,3.05
2023-03-06T00:07:05.560Z,3.27
2023-03-06T00:10:08.067Z,3.23
2023-03-06T00:13:13.091Z,3.25
2023-03-06T00:16:15.050Z,3.26
2023-03-06T00:19:16.968Z,3.11
2023-03-06T00:22:18.922Z,3.23
2023-03-06T00:25:21.819Z,3.26
2023-03-06T00:28:23.876Z,3.24
2023-03-06T00:31:25.679Z,3.19
2023-03-06T00:34:27.660Z,3.16
2023-03-06T00:37:29.449Z,2.96
2023-03-06T00:40:31.391Z,3.21
2023-03-06T00:43:34.504Z,3.17
2023-03-06T00:46:36.260Z,3.00
2023-03-06T00:49:38.219Z,3.16
2023-03-06T00:52:42.027Z,3.20
2023-03-06T00:55:47.638Z,3.15
2023-03-06T00:58:49.382Z,3.13
2023-03-06T01:01:51.595Z,3.07
2023-03-06T01:04:53.416Z,3.13
2023-03-06T01:07:55.180Z,3.21
2023-03-06T01:10:57.038Z,3.23
2023-03-06T01:13:58.792Z,3.15
2023-03-06T01:17:00.549Z,3.18
2023-03-06T01:20:02.286Z,3.08
2023-03-06T01:23:04.194Z,3.18
2023-03-06T01:26:06.305Z,2.80
2023-03-06T01:29:08.216Z,3.07
2023-03-06T01:32:09.926Z,3.08
2023-03-06T01:35:12.363Z,3.05
2023-03-06T01:38:14.400Z,2.98
2023-03-06T01:41:16.605Z,2.99
2023-03-06T01:44:18.359Z,3.00
2023-03-06T01:47:21.980Z,3.05
2023-03-06T01:50:23.910Z,2.94
2023-03-06T01:53:25.738Z,3.06
2023-03-06T01:56:28.818Z,3.00
2023-03-06T01:59:31.222Z,3.06
2023-03-06T02:02:33.174Z,3.04
2023-03-06T02:05:37.193Z,3.00
2023-03-06T02:08:39.724Z,3.02
2023-03-06T02:11:44.151Z,2.54
2023-03-06T02:14:47.037Z,2.87
2023-03-06T02:17:50.937Z,2.94
2023-03-06T02:20:56.894Z,2.79
2023-03-06T02:24:23.489Z,3.00
2023-03-06T02:27:26.913Z,2.91
2023-03-06T02:30:31.206Z,2.99
2023-03-06T02:33:33.404Z,2.90
2023-03-06T02:36:40.782Z,2.98
2023-03-06T02:39:48.601Z,2.98
2023-03-06T02:42:56.979Z,2.81
2023-03-06T02:45:58.794Z,2.92
2023-03-06T02:49:01.001Z,2.94
2023-03-06T02:52:02.869Z,2.51
2023-03-06T02:55:05.071Z,2.85
2023-03-06T02:58:06.893Z,2.90
2023-03-06T03:01:09.639Z,2.87
2023-03-06T03:04:12.691Z,2.88
2023-03-06T03:07:14.542Z,2.75
2023-03-06T03:10:17.560Z,2.88
2023-03-06T03:13:20.137Z,2.82
2023-03-06T03:16:23.173Z,2.81
2023-03-06T03:19:24.917Z,2.76
2023-03-06T03:22:26.792Z,2.71
2023-03-06T03:25:28.515Z,2.72
2023-03-06T03:28:32.548Z,2.69
2023-03-06T03:31:34.832Z,2.66
2023-03-06T03:34:37.731Z,2.45
2023-03-06T03:37:40.386Z,2.66
2023-03-06T03:40:43.460Z,2.60
2023-03-06T03:43:45.474Z,2.59
2023-03-06T03:46:47.342Z,2.56
2023-03-06T03:49:54.527Z,2.57
2023-03-06T03:52:56.360Z,2.62
2023-03-06T03:55:58.294Z,2.66
2023-03-06T03:59:00.153Z,2.54
2023-03-06T04:02:07.184Z,2.50
2023-03-06T04:05:15.996Z,2.67
2023-03-06T04:08:17.848Z,2.65
2023-03-06T04:11:21.376Z,2.61
2023-03-06T04:14:23.332Z,2.60
2023-03-06T04:17:25.807Z,2.50
2023-03-06T04:20:29.237Z,2.62
2023-03-06T04:23:33.666Z,2.64
2023-03-06T04:26:36.196Z,2.46
2023-03-06T04:29:38.646Z,2.66
2023-03-06T04:32:40.645Z,2.60
2023-03-06T04:35:42.721Z,2.53
2023-03-06T04:38:49.486Z,2.47
2023-03-06T04:41:51.430Z,2.46
2023-03-06T04:44:53.124Z,2.39
2023-03-06T04:47:55.187Z,2.19
2023-03-06T04:50:56.943Z,1.99
2023-03-06T04:53:59.453Z,1.90
2023-03-06T04:57:01.246Z,1.89
2023-03-06T05:00:08.253Z,1.83
2023-03-06T05:03:12.323Z,1.70
2023-03-06T05:06:14.027Z,1.66
2023-03-06T05:09:15.812Z,1.65
2023-03-06T05:12:17.724Z,1.61
2023-03-06T05:15:20.669Z,1.28
2023-03-06T05:18:22.536Z,1.56
2023-03-06T05:21:24.276Z,1.58
2023-03-06T05:24:26.081Z,1.56
2023-03-06T05:27:28.683Z,1.69
2023-03-06T05:30:30.506Z,1.56
2023-03-06T05:33:33.562Z,1.81
2023-03-06T05:36:35.478Z,1.80
2023-03-06T05:39:37.271Z,1.92
2023-03-06T05:42:39.505Z,1.80
2023-03-06T05:45:41.475Z,1.98
2023-03-06T05:48:44.192Z,2.20
2023-03-06T05:51:47.098Z,2.29
2023-03-06T05:54:53.702Z,2.32
2023-03-06T05:57:55.560Z,2.30
2023-03-06T06:00:57.481Z,2.34
2023-03-06T06:03:59.296Z,2.23
2023-03-06T06:07:01.823Z,2.34
2023-03-06T06:10:05.395Z,2.54
2023-03-06T06:13:07.397Z,2.57
2023-03-06T06:16:15.858Z,2.62
2023-03-06T06:19:20.923Z,2.57
2023-03-06T06:22:22.777Z,2.55
2023-03-06T06:25:24.588Z,2.70
2023-03-06T06:28:27.371Z,2.91
2023-03-06T06:31:29.200Z,2.73
2023-03-06T06:34:31.996Z,2.73
2023-03-06T06:37:34.263Z,3.01
2023-03-06T06:40:36.061Z,2.94
2023-03-06T06:43:37.961Z,3.01
2023-03-06T06:50:01.823Z,3.11
2023-03-06T06:53:03.547Z,2.99
2023-03-06T06:56:05.693Z,3.19
2023-03-06T06:59:16.629Z,3.29
2023-03-06T07:02:19.203Z,3.23
2023-03-06T07:05:22.100Z,3.33
2023-03-06T07:08:23.996Z,3.27
2023-03-06T07:11:27.219Z,3.27
2023-03-06T07:14:28.991Z,3.21
2023-03-06T07:17:30.850Z,2.96
2023-03-06T07:20:32.761Z,3.03
2023-03-06T07:23:34.667Z,3.16
2023-03-06T07:26:36.896Z,3.36
2023-03-06T07:29:38.970Z,3.37
2023-03-06T07:32:40.816Z,3.28
2023-03-06T07:35:43.271Z,3.39
2023-03-06T07:38:45.262Z,3.18
2023-03-06T07:41:47.584Z,3.24
2023-03-06T07:44:49.448Z,3.52
2023-03-06T07:47:51.673Z,3.80
2023-03-06T07:51:02.143Z,3.68
2023-03-06T07:54:03.968Z,3.75
2023-03-06T07:57:05.852Z,3.86
2023-03-06T08:00:14.418Z,4.02
2023-03-06T08:03:17.626Z,3.99
2023-03-06T08:06:25.205Z,4.17
2023-03-06T08:09:26.960Z,4.19
2023-03-06T08:12:28.960Z,4.17
2023-03-06T08:15:30.667Z,4.21
2023-03-06T08:18:32.503Z,4.44
2023-03-06T08:21:34.577Z,4.45
2023-03-06T08:24:36.494Z,4.65
2023-03-06T08:27:38.385Z,4.69
2023-03-06T08:30:40.529Z,4.96
2023-03-06T08:33:42.861Z,5.21
2023-03-06T08:36:45.175Z,5.42
2023-03-06T08:39:47.031Z,5.24
2023-03-06T08:42:49.021Z,5.51
2023-03-06T08:45:55.541Z,5.58
2023-03-06T08:48:58.421Z,5.81
2023-03-06T08:52:00.961Z,5.85
2023-03-06T08:55:03.736Z,6.13
2023-03-06T08:58:06.008Z,6.08
2023-03-06T09:01:23.276Z,6.00
2023-03-06T09:04:25.139Z,5.87
2023-03-06T09:07:28.068Z,5.70
2023-03-06T09:10:29.934Z,5.74
2023-03-06T09:13:31.653Z,5.64
2023-03-06T09:16:33.845Z,5.88
2023-03-06T09:19:35.653Z,6.00
2023-03-06T09:22:37.828Z,6.20
2023-03-06T09:25:39.553Z,6.32
2023-03-06T09:28:41.479Z,6.41
2023-03-06T09:31:43.768Z,6.48
2023-03-06T09:34:45.548Z,6.60
2023-03-06T09:37:47.269Z,6.72
2023-03-06T09:40:57.919Z,6.91
2023-03-06T09:44:14.463Z,6.89
2023-03-06T09:47:45.290Z,6.86
2023-03-06T09:51:05.946Z,6.77
2023-03-06T09:54:13.669Z,6.73
2023-03-06T09:57:35.704Z,6.87
2023-03-06T10:00:46.379Z,6.87
2023-03-06T10:04:08.969Z,6.93
2023-03-06T10:07:18.713Z,6.85
2023-03-06T10:10:24.743Z,7.07
2023-03-06T10:13:31.999Z,7.23
2023-03-06T10:16:33.962Z,7.36
2023-03-06T10:19:40.148Z,7.18
2023-03-06T10:23:00.661Z,7.24
2023-03-06T10:26:16.066Z,7.19
2023-03-06T10:29:29.708Z,7.36
2023-03-06T10:32:49.295Z,7.23
2023-03-06T10:35:54.195Z,7.20
2023-03-06T10:38:58.255Z,7.23
2023-03-06T10:42:00.031Z,7.05
2023-03-06T10:45:12.555Z,7.15
2023-03-06T10:48:19.813Z,7.03
2023-03-06T10:51:26.117Z,6.99
2023-03-06T10:54:30.402Z,7.04
2023-03-06T10:57:32.525Z,6.78
2023-03-06T11:00:38.386Z,7.07
2023-03-06T11:03:41.176Z,7.22
2023-03-06T11:06:42.996Z,7.21
2023-03-06T11:09:59.570Z,7.25
2023-03-06T11:13:23.061Z,7.22
2023-03-06T11:16:30.501Z,7.30
2023-03-06T11:19:33.370Z,7.47
2023-03-06T11:22:38.861Z,7.54
2023-03-06T11:26:07.546Z,7.48
2023-03-06T11:29:15.344Z,7.58
2023-03-06T11:32:29.437Z,7.48
2023-03-06T11:35:39.636Z,7.55
2023-03-06T11:38:49.088Z,7.79
2023-03-06T11:42:22.025Z,7.75
2023-03-06T11:45:57.075Z,8.21
2023-03-06T11:49:13.680Z,8.41
2023-03-06T11:52:22.925Z,8.50
2023-03-06T11:55:30.320Z,8.46
2023-03-06T11:58:40.958Z,8.60
2023-03-06T12:01:45.699Z,8.62
2023-03-06T12:05:13.235Z,8.64
2023-03-06T12:08:41.226Z,8.62
2023-03-06T12:11:53.283Z,8.56
2023-03-06T12:15:14.118Z,8.72
2023-03-06T12:18:24.570Z,8.77
2023-03-06T12:21:54.707Z,8.68
2023-03-06T12:25:16.930Z,8.58
2023-03-06T12:28:24.654Z,8.46
2023-03-06T12:31:31.468Z,8.41
2023-03-06T12:34:33.235Z,8.37
2023-03-06T12:37:52.382Z,8.33
2023-03-06T12:40:57.299Z,8.26
2023-03-06T12:44:17.503Z,8.24
2023-03-06T12:47:23.786Z,8.17
2023-03-06T12:50:27.570Z,7.88
2023-03-06T12:53:34.184Z,8.03
2023-03-06T12:56:36.031Z,8.01
2023-03-06T12:59:48.091Z,8.00
2023-03-06T13:03:21.193Z,8.09
2023-03-06T13:06:49.724Z,7.96
2023-03-06T13:10:16.117Z,7.82
2023-03-06T13:13:35.981Z,7.86
2023-03-06T13:16:37.733Z,7.75
2023-03-06T13:19:39.565Z,7.58
2023-03-06T13:22:43.686Z,7.45
2023-03-06T13:25:50.562Z,7.23
2023-03-06T13:28:54.054Z,7.16
2023-03-06T13:32:07.492Z,7.01
2023-03-06T13:35:32.279Z,6.81
2023-03-06T13:39:01.101Z,6.71
2023-03-06T13:42:07.186Z,6.66
2023-03-06T13:45:25.213Z,6.61
2023-03-06T13:48:44.637Z,6.53
2023-03-06T13:51:53.147Z,6.55
2023-03-06T13:55:33.221Z,6.54
2023-03-06T13:58:53.577Z,6.47
2023-03-06T14:02:15.655Z,6.37
2023-03-06T14:05:18.629Z,6.30
2023-03-06T14:08:27.219Z,6.30
2023-03-06T14:11:29.804Z,6.17
2023-03-06T14:14:50.125Z,5.93
2023-03-06T14:18:01.740Z,6.11
2023-03-06T14:21:11.898Z,5.81
2023-03-06T14:24:19.260Z,5.84
2023-03-06T14:27:21.384Z,5.94
2023-03-06T14:30:26.279Z,5.97
2023-03-06T14:33:57.304Z,5.96
2023-03-06T14:37:02.972Z,5.86
2023-03-06T14:40:11.398Z,5.85
2023-03-06T14:43:22.671Z,5.63
2023-03-06T14:46:24.490Z,5.65
2023-03-06T14:49:26.931Z,5.60
2023-03-06T14:56:01.168Z,5.40
2023-03-06T14:59:06.078Z,5.56
2023-03-06T15:02:11.542Z,5.55
2023-03-06T15:05:27.827Z,5.50
2023-03-06T15:08:34.615Z,5.45
2023-03-06T15:12:09.737Z,5.48
2023-03-06T15:15:11.802Z,5.49
2023-03-06T15:18:56.500Z,5.40
2023-03-06T15:21:58.359Z,5.48
2023-03-06T15:25:26.752Z,5.50
2023-03-06T15:28:37.295Z,5.42
2023-03-06T15:31:45.620Z,5.40
2023-03-06T15:34:48.563Z,5.32
2023-03-06T15:37:51.256Z,5.23
2023-03-06T15:41:01.126Z,5.26
2023-03-06T15:44:11.121Z,5.25
2023-03-06T15:47:12.876Z,5.12
2023-03-06T15:50:17.859Z,5.10
2023-03-06T15:53:20.419Z,5.02
2023-03-06T15:56:29.638Z,4.87
2023-03-06T15:59:34.468Z,4.90
2023-03-06T16:02:36.224Z,4.90
2023-03-06T16:05:38.680Z,4.90
2023-03-06T16:08:40.470Z,4.88
2023-03-06T16:11:44.875Z,4.85
2023-03-06T16:14:48.092Z,4.82
2023-03-06T16:17:49.927Z,4.68
2023-03-06T16:20:51.736Z,4.60
2023-03-06T16:23:53.544Z,4.58
2023-03-06T16:26:55.729Z,4.79
2023-03-06T16:29:57.594Z,4.45
2023-03-06T16:32:59.685Z,4.68
2023-03-06T16:36:02.532Z,4.61
2023-03-06T16:39:04.679Z,4.51
2023-03-06T16:42:06.576Z,4.33
2023-03-06T16:45:08.884Z,4.53
2023-03-06T16:48:15.192Z,4.62
2023-03-06T16:51:19.623Z,4.60
2023-03-06T16:54:24.287Z,4.62
2023-03-06T16:57:35.755Z,4.62
2023-03-06T17:00:38.342Z,4.62
2023-03-06T17:03:40.230Z,4.60
2023-03-06T17:06:43.185Z,4.53
2023-03-06T17:09:45.029Z,4.54
2023-03-06T17:12:47.023Z,4.47
2023-03-06T17:15:56.996Z,4.39
2023-03-06T17:18:59.960Z,4.41
2023-03-06T17:22:01.817Z,4.36
2023-03-06T17:25:06.862Z,4.40
2023-03-06T17:28:08.940Z,4.41
2023-03-06T17:31:16.614Z,4.31
2023-03-06T17:34:18.498Z,4.36
2023-03-06T17:37:20.857Z,4.34
2023-03-06T17:40:22.670Z,4.16
2023-03-06T17:43:24.545Z,4.26
2023-03-06T17:46:26.542Z,4.20
2023-03-06T17:49:28.585Z,4.13
2023-03-06T17:52:30.709Z,4.11
2023-03-06T17:55:32.559Z,4.08
2023-03-06T17:58:35.852Z,3.95
2023-03-06T18:01:38.012Z,3.84
2023-03-06T18:04:40.409Z,3.96
2023-03-06T18:07:42.100Z,3.98
2023-03-06T18:10:43.820Z,3.76
2023-03-06T18:13:46.526Z,3.73
2023-03-06T18:16:48.442Z,3.68
2023-03-06T18:19:51.439Z,3.65
2023-03-06T18:22:53.176Z,3.62
2023-03-06T18:26:31.735Z,3.64
2023-03-06T18:29:33.547Z,3.60
2023-03-06T18:32:48.983Z,3.67
2023-03-06T18:36:03.548Z,3.65
2023-03-06T18:39:08.913Z,3.44
2023-03-06T18:42:10.755Z,3.48
2023-03-06T18:45:12.964Z,3.39
2023-03-06T18:48:14.717Z,3.45
2023-03-06T18:51:16.842Z,3.56
2023-03-06T18:54:18.714Z,3.50
2023-03-06T18:57:20.666Z,3.41
2023-03-06T19:00:22.751Z,3.58
2023-03-06T19:03:24.943Z,3.47
2023-03-06T19:06:27.937Z,3.55
2023-03-06T19:09:29.810Z,3.47
2023-03-06T19:12:32.976Z,3.48
2023-03-06T19:15:35.280Z,3.51
2023-03-06T19:18:37.050Z,3.47
2023-03-06T19:21:38.941Z,3.37
2023-03-06T19:24:40.757Z,3.45
2023-03-06T19:27:44.920Z,3.44
2023-03-06T19:30:46.673Z,3.31
2023-03-06T19:33:49.734Z,3.36
2023-03-06T19:36:51.697Z,3.36
2023-03-06T19:39:53.630Z,3.44
2023-03-06T19:42:55.745Z,3.29
2023-03-06T19:46:01.040Z,3.48
2023-03-06T19:49:09.987Z,3.31
2023-03-06T19:52:11.759Z,3.25
2023-03-06T19:55:13.568Z,3.06
2023-03-06T19:58:15.366Z,3.23
2023-03-06T20:01:19.630Z,3.16
2023-03-06T20:04:21.701Z,3.24
2023-03-06T20:07:23.813Z,3.22
2023-03-06T20:10:25.582Z,3.05
2023-03-06T20:13:27.800Z,3.18
2023-03-06T20:16:30.702Z,3.18
2023-03-06T20:19:32.597Z,3.22
2023-03-06T20:22:34.434Z,3.19
2023-03-06T20:25:36.900Z,3.15
2023-03-06T20:28:39.674Z,3.01
2023-03-06T20:31:41.998Z,3.08
2023-03-06T20:34:44.570Z,3.04
2023-03-06T20:37:46.283Z,3.03
2023-03-06T20:40:48.091Z,3.00
2023-03-06T20:43:50.247Z,2.88
2023-03-06T20:46:52.159Z,2.89
2023-03-06T20:49:54.038Z,2.85
2023-03-06T20:52:56.928Z,2.74
2023-03-06T20:55:58.611Z,2.78
2023-03-06T20:59:00.337Z,2.68
2023-03-06T21:02:02.214Z,2.69
2023-03-06T21:05:04.199Z,2.67
2023-03-06T21:08:07.259Z,2.75
2023-03-06T21:11:08.999Z,2.67
2023-03-06T21:14:12.400Z,2.73
2023-03-06T21:17:14.125Z,2.73
2023-03-06T21:20:15.979Z,2.79
2023-03-06T21:23:17.748Z,2.82
2023-03-06T21:26:21.922Z,2.56
2023-03-06T21:29:23.668Z,2.54
2023-03-06T21:32:25.519Z,2.44
2023-03-06T21:35:27.733Z,2.42
2023-03-06T21:38:30.079Z,2.48
2023-03-06T21:41:32.457Z,2.56
2023-03-06T21:44:34.172Z,2.47
2023-03-06T21:47:40.826Z,2.47
2023-03-06T21:50:42.674Z,2.48
2023-03-06T21:53:45.886Z,2.49
2023-03-06T21:56:48.066Z,2.54
2023-03-06T21:59:49.795Z,2.62
2023-03-06T22:02:52.579Z,2.64
2023-03-06T22:05:54.872Z,2.77
2023-03-06T22:08:57.842Z,2.77
2023-03-06T22:11:59.680Z,2.78
2023-03-06T22:15:01.524Z,2.67
2023-03-06T22:18:03.299Z,2.75
2023-03-06T22:21:10.547Z,2.58
2023-03-06T22:24:12.327Z,2.70
2023-03-06T22:27:14.774Z,2.67
2023-03-06T22:30:17.853Z,2.57
2023-03-06T22:33:19.580Z,2.38
2023-03-06T22:36:25.188Z,2.51
2023-03-06T22:39:27.185Z,2.51
2023-03-06T22:42:28.954Z,2.46
2023-03-06T22:45:34.758Z,2.46
2023-03-06T22:48:36.920Z,2.43
2023-03-06T22:51:39.652Z,2.42
2023-03-06T22:54:41.332Z,2.34
2023-03-06T22:57:44.049Z,2.33
2023-03-06T23:00:45.709Z,2.35
2023-03-06T23:03:50.767Z,2.34
2023-03-06T23:06:52.465Z,2.39
2023-03-06T23:09:54.279Z,2.47
2023-03-06T23:13:15.065Z,2.54
2023-03-06T23:16:35.542Z,2.63
2023-03-06T23:19:56.004Z,2.68
2023-03-06T23:23:16.174Z,2.71
2023-03-06T23:26:19.856Z,2.76
2023-03-06T23:29:21.574Z,2.79
2023-03-06T23:32:23.369Z,2.83
2023-03-06T23:35:25.462Z,2.82
2023-03-06T23:38:29.143Z,2.79
2023-03-06T23:41:31.030Z,2.77
2023-03-06T23:44:35.611Z,2.72
2023-03-06T23:47:37.362Z,2.70
2023-03-06T23:50:41.155Z,2.67
2023-03-06T23:53:46.695Z,2.68
2023-03-06T23:56:48.495Z,2.61
2023-03-06T23:59:50.202Z,2.68
